sensor_id;sensor_type;location;lat;lon;timestamp;P1;durP1;ratioP1;P2;durP2;ratioP2
71172;SDS011;58875;51.996;4.504;2024-03-17T00:00:42;8.35;;;8.35;;
71172;SDS011;58875;51.996;4.504;2024-03-17T00:03:08;8.69;;;8.69;;
71172;SDS011;58875;51.996;4.504;2024-03-17T00:05:35;8.52;;;8.52;;
71172;SDS011;58875;51.996;4.504;2024-03-17T00:08:01;8.39;;;8.39;;
71172;SDS011;58875;51.996;4.504;2024-03-17T00:10:30;8.44;;;8.44;;
71172;SDS011;58875;51.996;4.504;2024-03-17T00:12:56;8.63;;;8.63;;
71172;SDS011;58875;51.996;4.504;2024-03-17T00:15:23;8.58;;;8.58;;
71172;SDS011;58875;51.996;4.504;2024-03-17T00:17:48;9.06;;;9.06;;
71172;SDS011;58875;51.996;4.504;2024-03-17T00:20:14;8.52;;;8.52;;
71172;SDS011;58875;51.996;4.504;2024-03-17T00:22:48;8.96;;;8.96;;
71172;SDS011;58875;51.996;4.504;2024-03-17T00:25:16;8.47;;;8.47;;
71172;SDS011;58875;51.996;4.504;2024-03-17T00:27:42;8.71;;;8.71;;
71172;SDS011;58875;51.996;4.504;2024-03-17T00:30:10;8.46;;;8.46;;
71172;SDS011;58875;51.996;4.504;2024-03-17T00:32:40;8.13;;;8.13;;
71172;SDS011;58875;51.996;4.504;2024-03-17T00:35:07;8.14;;;8.14;;
71172;SDS011;58875;51.996;4.504;2024-03-17T00:37:35;8.23;;;8.23;;
71172;SDS011;58875;51.996;4.504;2024-03-17T00:40:01;7.92;;;7.89;;
71172;SDS011;58875;51.996;4.504;2024-03-17T00:42:28;8.07;;;8.06;;
71172;SDS011;58875;51.996;4.504;2024-03-17T00:44:55;7.52;;;7.52;;
71172;SDS011;58875;51.996;4.504;2024-03-17T00:47:21;7.54;;;7.54;;
71172;SDS011;58875;51.996;4.504;2024-03-17T00:49:46;7.23;;;7.23;;
71172;SDS011;58875;51.996;4.504;2024-03-17T00:52:15;7.61;;;7.61;;
71172;SDS011;58875;51.996;4.504;2024-03-17T00:54:41;7.59;;;7.59;;
71172;SDS011;58875;51.996;4.504;2024-03-17T00:57:07;7.53;;;7.53;;
71172;SDS011;58875;51.996;4.504;2024-03-17T00:59:32;7.37;;;7.36;;
71172;SDS011;58875;51.996;4.504;2024-03-17T01:01:58;7.64;;;7.64;;
71172;SDS011;58875;51.996;4.504;2024-03-17T01:04:23;7.48;;;7.48;;
71172;SDS011;58875;51.996;4.504;2024-03-17T01:06:49;7.85;;;7.85;;
71172;SDS011;58875;51.996;4.504;2024-03-17T01:09:15;8.27;;;8.27;;
71172;SDS011;58875;51.996;4.504;2024-03-17T01:11:40;8.74;;;8.72;;
71172;SDS011;58875;51.996;4.504;2024-03-17T01:14:06;8.24;;;8.23;;
71172;SDS011;58875;51.996;4.504;2024-03-17T01:16:33;8.67;;;8.64;;
71172;SDS011;58875;51.996;4.504;2024-03-17T01:18:58;8.94;;;8.90;;
71172;SDS011;58875;51.996;4.504;2024-03-17T01:21:24;8.55;;;8.55;;
71172;SDS011;58875;51.996;4.504;2024-03-17T01:23:50;8.75;;;8.75;;
71172;SDS011;58875;51.996;4.504;2024-03-17T01:26:15;8.83;;;8.83;;
71172;SDS011;58875;51.996;4.504;2024-03-17T01:28:41;8.97;;;8.97;;
71172;SDS011;58875;51.996;4.504;2024-03-17T01:31:06;9.03;;;9.03;;
71172;SDS011;58875;51.996;4.504;2024-03-17T01:33:32;8.74;;;8.74;;
71172;SDS011;58875;51.996;4.504;2024-03-17T01:35:58;8.46;;;8.46;;
71172;SDS011;58875;51.996;4.504;2024-03-17T01:38:23;9.32;;;9.32;;
71172;SDS011;58875;51.996;4.504;2024-03-17T01:40:49;9.19;;;9.17;;
71172;SDS011;58875;51.996;4.504;2024-03-17T01:43:14;8.86;;;8.84;;
71172;SDS011;58875;51.996;4.504;2024-03-17T01:45:40;9.05;;;9.04;;
71172;SDS011;58875;51.996;4.504;2024-03-17T01:48:09;9.08;;;9.08;;
71172;SDS011;58875;51.996;4.504;2024-03-17T01:50:44;9.33;;;9.33;;
71172;SDS011;58875;51.996;4.504;2024-03-17T01:53:13;9.35;;;9.32;;
71172;SDS011;58875;51.996;4.504;2024-03-17T01:55:40;9.49;;;9.49;;
71172;SDS011;58875;51.996;4.504;2024-03-17T01:58:09;9.43;;;9.43;;
71172;SDS011;58875;51.996;4.504;2024-03-17T02:00:36;9.70;;;9.70;;
71172;SDS011;58875;51.996;4.504;2024-03-17T02:03:06;10.10;;;10.10;;
71172;SDS011;58875;51.996;4.504;2024-03-17T02:05:35;9.60;;;9.60;;
71172;SDS011;58875;51.996;4.504;2024-03-17T02:08:05;9.22;;;9.21;;
71172;SDS011;58875;51.996;4.504;2024-03-17T02:10:32;9.75;;;9.75;;
71172;SDS011;58875;51.996;4.504;2024-03-17T02:12:58;9.70;;;9.69;;
71172;SDS011;58875;51.996;4.504;2024-03-17T02:15:25;9.31;;;9.31;;
71172;SDS011;58875;51.996;4.504;2024-03-17T02:17:50;9.26;;;9.26;;
71172;SDS011;58875;51.996;4.504;2024-03-17T02:20:16;10.02;;;10.02;;
71172;SDS011;58875;51.996;4.504;2024-03-17T02:22:43;9.24;;;9.24;;
71172;SDS011;58875;51.996;4.504;2024-03-17T02:25:08;9.47;;;9.47;;
71172;SDS011;58875;51.996;4.504;2024-03-17T02:27:37;9.37;;;9.37;;
71172;SDS011;58875;51.996;4.504;2024-03-17T02:30:03;9.45;;;9.45;;
71172;SDS011;58875;51.996;4.504;2024-03-17T02:32:34;9.99;;;9.99;;
71172;SDS011;58875;51.996;4.504;2024-03-17T02:35:00;9.37;;;9.36;;
71172;SDS011;58875;51.996;4.504;2024-03-17T02:37:26;9.93;;;9.90;;
71172;SDS011;58875;51.996;4.504;2024-03-17T02:39:52;9.90;;;9.88;;
71172;SDS011;58875;51.996;4.504;2024-03-17T02:42:18;9.58;;;9.58;;
71172;SDS011;58875;51.996;4.504;2024-03-17T02:44:44;9.65;;;9.65;;
71172;SDS011;58875;51.996;4.504;2024-03-17T02:47:10;10.19;;;10.19;;
71172;SDS011;58875;51.996;4.504;2024-03-17T02:49:39;10.30;;;10.30;;
71172;SDS011;58875;51.996;4.504;2024-03-17T02:52:09;9.98;;;9.97;;
71172;SDS011;58875;51.996;4.504;2024-03-17T02:54:36;10.11;;;10.10;;
71172;SDS011;58875;51.996;4.504;2024-03-17T02:57:05;9.75;;;9.75;;
71172;SDS011;58875;51.996;4.504;2024-03-17T02:59:32;10.02;;;9.97;;
71172;SDS011;58875;51.996;4.504;2024-03-17T03:01:58;10.08;;;10.05;;
71172;SDS011;58875;51.996;4.504;2024-03-17T03:04:25;10.36;;;10.36;;
71172;SDS011;58875;51.996;4.504;2024-03-17T03:06:51;10.42;;;10.42;;
71172;SDS011;58875;51.996;4.504;2024-03-17T03:09:16;10.25;;;10.25;;
71172;SDS011;58875;51.996;4.504;2024-03-17T03:11:50;10.16;;;10.16;;
71172;SDS011;58875;51.996;4.504;2024-03-17T03:14:17;10.03;;;10.03;;
71172;SDS011;58875;51.996;4.504;2024-03-17T03:16:42;9.87;;;9.85;;
71172;SDS011;58875;51.996;4.504;2024-03-17T03:19:08;9.77;;;9.77;;
71172;SDS011;58875;51.996;4.504;2024-03-17T03:21:34;10.02;;;9.99;;
71172;SDS011;58875;51.996;4.504;2024-03-17T03:24:00;9.72;;;9.72;;
71172;SDS011;58875;51.996;4.504;2024-03-17T03:26:25;9.79;;;9.79;;
71172;SDS011;58875;51.996;4.504;2024-03-17T03:28:51;9.88;;;9.88;;
71172;SDS011;58875;51.996;4.504;2024-03-17T03:31:16;9.67;;;9.67;;
71172;SDS011;58875;51.996;4.504;2024-03-17T03:33:42;9.33;;;9.33;;
71172;SDS011;58875;51.996;4.504;2024-03-17T03:36:12;9.36;;;9.36;;
71172;SDS011;58875;51.996;4.504;2024-03-17T03:38:40;9.41;;;9.41;;
71172;SDS011;58875;51.996;4.504;2024-03-17T03:41:09;9.64;;;9.64;;
71172;SDS011;58875;51.996;4.504;2024-03-17T03:43:38;10.12;;;10.10;;
71172;SDS011;58875;51.996;4.504;2024-03-17T03:46:04;10.91;;;10.87;;
71172;SDS011;58875;51.996;4.504;2024-03-17T03:48:31;10.62;;;10.62;;
71172;SDS011;58875;51.996;4.504;2024-03-17T03:50:57;10.58;;;10.58;;
71172;SDS011;58875;51.996;4.504;2024-03-17T03:53:24;10.44;;;10.44;;
71172;SDS011;58875;51.996;4.504;2024-03-17T03:55:49;10.73;;;10.73;;
71172;SDS011;58875;51.996;4.504;2024-03-17T03:58:15;10.71;;;10.70;;
71172;SDS011;58875;51.996;4.504;2024-03-17T04:00:40;10.85;;;10.85;;
71172;SDS011;58875;51.996;4.504;2024-03-17T04:03:06;10.51;;;10.51;;
71172;SDS011;58875;51.996;4.504;2024-03-17T04:05:32;10.97;;;10.97;;
71172;SDS011;58875;51.996;4.504;2024-03-17T04:07:59;11.12;;;11.12;;
71172;SDS011;58875;51.996;4.504;2024-03-17T04:10:26;11.39;;;11.39;;
71172;SDS011;58875;51.996;4.504;2024-03-17T04:12:52;11.66;;;11.66;;
71172;SDS011;58875;51.996;4.504;2024-03-17T04:15:18;11.22;;;11.21;;
71172;SDS011;58875;51.996;4.504;2024-03-17T04:17:44;11.74;;;11.73;;
71172;SDS011;58875;51.996;4.504;2024-03-17T04:20:10;11.44;;;11.44;;
71172;SDS011;58875;51.996;4.504;2024-03-17T04:22:39;11.82;;;11.80;;
71172;SDS011;58875;51.996;4.504;2024-03-17T04:25:06;11.72;;;11.67;;
71172;SDS011;58875;51.996;4.504;2024-03-17T04:27:31;11.48;;;11.48;;
71172;SDS011;58875;51.996;4.504;2024-03-17T04:29:58;11.75;;;11.75;;
71172;SDS011;58875;51.996;4.504;2024-03-17T04:32:25;12.17;;;12.17;;
71172;SDS011;58875;51.996;4.504;2024-03-17T04:34:54;11.91;;;11.91;;
71172;SDS011;58875;51.996;4.504;2024-03-17T04:37:20;12.13;;;12.13;;
71172;SDS011;58875;51.996;4.504;2024-03-17T04:39:45;12.54;;;12.54;;
71172;SDS011;58875;51.996;4.504;2024-03-17T04:42:12;12.76;;;12.75;;
71172;SDS011;58875;51.996;4.504;2024-03-17T04:44:43;12.70;;;12.70;;
71172;SDS011;58875;51.996;4.504;2024-03-17T04:47:09;13.20;;;13.19;;
71172;SDS011;58875;51.996;4.504;2024-03-17T04:52:01;13.28;;;13.28;;
71172;SDS011;58875;51.996;4.504;2024-03-17T04:54:30;12.98;;;12.98;;
71172;SDS011;58875;51.996;4.504;2024-03-17T04:57:02;13.38;;;13.38;;
71172;SDS011;58875;51.996;4.504;2024-03-17T04:59:29;13.60;;;13.60;;
71172;SDS011;58875;51.996;4.504;2024-03-17T05:01:54;13.45;;;13.45;;
71172;SDS011;58875;51.996;4.504;2024-03-17T05:04:20;13.26;;;13.26;;
71172;SDS011;58875;51.996;4.504;2024-03-17T05:06:47;12.95;;;12.95;;
71172;SDS011;58875;51.996;4.504;2024-03-17T05:09:21;13.39;;;13.39;;
71172;SDS011;58875;51.996;4.504;2024-03-17T05:11:52;14.00;;;13.96;;
71172;SDS011;58875;51.996;4.504;2024-03-17T05:14:18;14.04;;;13.91;;
71172;SDS011;58875;51.996;4.504;2024-03-17T05:16:50;13.35;;;13.34;;
71172;SDS011;58875;51.996;4.504;2024-03-17T05:19:16;12.96;;;12.96;;
71172;SDS011;58875;51.996;4.504;2024-03-17T05:21:43;13.03;;;13.03;;
71172;SDS011;58875;51.996;4.504;2024-03-17T05:24:11;13.25;;;13.25;;
71172;SDS011;58875;51.996;4.504;2024-03-17T05:26:40;12.92;;;12.92;;
71172;SDS011;58875;51.996;4.504;2024-03-17T05:29:07;12.96;;;12.96;;
71172;SDS011;58875;51.996;4.504;2024-03-17T05:31:33;13.15;;;13.15;;
71172;SDS011;58875;51.996;4.504;2024-03-17T05:33:59;13.12;;;13.12;;
71172;SDS011;58875;51.996;4.504;2024-03-17T05:36:25;12.38;;;12.38;;
71172;SDS011;58875;51.996;4.504;2024-03-17T05:38:53;12.65;;;12.65;;
71172;SDS011;58875;51.996;4.504;2024-03-17T05:41:19;12.57;;;12.57;;
71172;SDS011;58875;51.996;4.504;2024-03-17T05:43:44;12.75;;;12.74;;
71172;SDS011;58875;51.996;4.504;2024-03-17T05:46:11;12.88;;;12.88;;
71172;SDS011;58875;51.996;4.504;2024-03-17T05:48:38;12.75;;;12.75;;
71172;SDS011;58875;51.996;4.504;2024-03-17T05:51:05;13.34;;;13.32;;
71172;SDS011;58875;51.996;4.504;2024-03-17T05:53:32;12.91;;;12.91;;
71172;SDS011;58875;51.996;4.504;2024-03-17T05:56:03;12.83;;;12.83;;
71172;SDS011;58875;51.996;4.504;2024-03-17T05:58:29;12.64;;;12.64;;
71172;SDS011;58875;51.996;4.504;2024-03-17T06:00:55;12.90;;;12.90;;
71172;SDS011;58875;51.996;4.504;2024-03-17T06:03:21;12.28;;;12.28;;
71172;SDS011;58875;51.996;4.504;2024-03-17T06:05:47;12.69;;;12.68;;
71172;SDS011;58875;51.996;4.504;2024-03-17T06:08:13;12.94;;;12.91;;
71172;SDS011;58875;51.996;4.504;2024-03-17T06:10:42;12.89;;;12.88;;
71172;SDS011;58875;51.996;4.504;2024-03-17T06:13:09;13.13;;;13.13;;
71172;SDS011;58875;51.996;4.504;2024-03-17T06:15:38;12.92;;;12.92;;
71172;SDS011;58875;51.996;4.504;2024-03-17T06:18:04;12.93;;;12.86;;
71172;SDS011;58875;51.996;4.504;2024-03-17T06:20:34;13.12;;;13.07;;
71172;SDS011;58875;51.996;4.504;2024-03-17T06:23:00;13.60;;;13.59;;
71172;SDS011;58875;51.996;4.504;2024-03-17T06:25:26;13.03;;;13.03;;
71172;SDS011;58875;51.996;4.504;2024-03-17T06:27:53;13.00;;;13.00;;
71172;SDS011;58875;51.996;4.504;2024-03-17T06:30:19;13.03;;;13.03;;
71172;SDS011;58875;51.996;4.504;2024-03-17T06:32:45;12.79;;;12.79;;
71172;SDS011;58875;51.996;4.504;2024-03-17T06:35:11;12.96;;;12.96;;
71172;SDS011;58875;51.996;4.504;2024-03-17T06:37:40;13.14;;;13.14;;
71172;SDS011;58875;51.996;4.504;2024-03-17T06:40:15;13.45;;;13.45;;
71172;SDS011;58875;51.996;4.504;2024-03-17T06:42:41;12.74;;;12.74;;
71172;SDS011;58875;51.996;4.504;2024-03-17T06:45:07;13.74;;;13.70;;
71172;SDS011;58875;51.996;4.504;2024-03-17T06:47:37;13.59;;;13.58;;
71172;SDS011;58875;51.996;4.504;2024-03-17T06:50:03;13.53;;;13.53;;
71172;SDS011;58875;51.996;4.504;2024-03-17T06:52:30;13.64;;;13.64;;
71172;SDS011;58875;51.996;4.504;2024-03-17T06:54:56;13.85;;;13.78;;
71172;SDS011;58875;51.996;4.504;2024-03-17T06:57:26;13.91;;;13.80;;
71172;SDS011;58875;51.996;4.504;2024-03-17T06:59:52;13.86;;;13.81;;
71172;SDS011;58875;51.996;4.504;2024-03-17T07:02:17;13.10;;;13.07;;
71172;SDS011;58875;51.996;4.504;2024-03-17T07:04:45;13.44;;;13.43;;
71172;SDS011;58875;51.996;4.504;2024-03-17T07:07:12;13.72;;;13.72;;
71172;SDS011;58875;51.996;4.504;2024-03-17T07:09:38;13.62;;;13.62;;
71172;SDS011;58875;51.996;4.504;2024-03-17T07:12:05;13.54;;;13.54;;
71172;SDS011;58875;51.996;4.504;2024-03-17T07:14:31;13.31;;;13.31;;
71172;SDS011;58875;51.996;4.504;2024-03-17T07:16:57;13.39;;;13.39;;
71172;SDS011;58875;51.996;4.504;2024-03-17T07:19:22;13.06;;;13.06;;
71172;SDS011;58875;51.996;4.504;2024-03-17T07:21:48;13.08;;;13.08;;
71172;SDS011;58875;51.996;4.504;2024-03-17T07:24:13;13.44;;;13.44;;
71172;SDS011;58875;51.996;4.504;2024-03-17T07:26:39;13.72;;;13.72;;
71172;SDS011;58875;51.996;4.504;2024-03-17T07:29:04;13.60;;;13.56;;
71172;SDS011;58875;51.996;4.504;2024-03-17T07:31:37;13.35;;;13.35;;
71172;SDS011;58875;51.996;4.504;2024-03-17T07:34:02;13.49;;;13.49;;
71172;SDS011;58875;51.996;4.504;2024-03-17T07:36:27;12.79;;;12.79;;
71172;SDS011;58875;51.996;4.504;2024-03-17T07:38:53;12.76;;;12.76;;
71172;SDS011;58875;51.996;4.504;2024-03-17T07:41:18;12.65;;;12.65;;
71172;SDS011;58875;51.996;4.504;2024-03-17T07:43:44;12.78;;;12.76;;
71172;SDS011;58875;51.996;4.504;2024-03-17T07:46:11;12.44;;;12.43;;
71172;SDS011;58875;51.996;4.504;2024-03-17T07:48:38;12.75;;;12.75;;
71172;SDS011;58875;51.996;4.504;2024-03-17T07:51:15;12.46;;;12.46;;
71172;SDS011;58875;51.996;4.504;2024-03-17T07:53:45;12.53;;;12.53;;
71172;SDS011;58875;51.996;4.504;2024-03-17T07:56:13;12.69;;;12.68;;
71172;SDS011;58875;51.996;4.504;2024-03-17T07:58:40;12.50;;;12.50;;
71172;SDS011;58875;51.996;4.504;2024-03-17T08:01:12;12.58;;;12.58;;
71172;SDS011;58875;51.996;4.504;2024-03-17T08:03:40;12.43;;;12.43;;
71172;SDS011;58875;51.996;4.504;2024-03-17T08:06:09;12.61;;;12.61;;
71172;SDS011;58875;51.996;4.504;2024-03-17T08:08:36;12.30;;;12.30;;
71172;SDS011;58875;51.996;4.504;2024-03-17T08:11:02;12.55;;;12.55;;
71172;SDS011;58875;51.996;4.504;2024-03-17T08:13:28;12.09;;;12.09;;
71172;SDS011;58875;51.996;4.504;2024-03-17T08:16:01;12.65;;;12.65;;
71172;SDS011;58875;51.996;4.504;2024-03-17T08:18:32;12.90;;;12.90;;
71172;SDS011;58875;51.996;4.504;2024-03-17T08:20:59;12.62;;;12.62;;
71172;SDS011;58875;51.996;4.504;2024-03-17T08:23:26;12.43;;;12.43;;
71172;SDS011;58875;51.996;4.504;2024-03-17T08:25:56;12.43;;;12.42;;
71172;SDS011;58875;51.996;4.504;2024-03-17T08:28:24;12.58;;;12.54;;
71172;SDS011;58875;51.996;4.504;2024-03-17T08:30:51;12.58;;;12.58;;
71172;SDS011;58875;51.996;4.504;2024-03-17T08:33:17;12.86;;;12.85;;
71172;SDS011;58875;51.996;4.504;2024-03-17T08:35:51;12.67;;;12.67;;
71172;SDS011;58875;51.996;4.504;2024-03-17T08:38:21;12.15;;;12.15;;
71172;SDS011;58875;51.996;4.504;2024-03-17T08:40:49;12.31;;;12.31;;
71172;SDS011;58875;51.996;4.504;2024-03-17T08:43:17;12.86;;;12.84;;
71172;SDS011;58875;51.996;4.504;2024-03-17T08:45:44;12.92;;;12.92;;
71172;SDS011;58875;51.996;4.504;2024-03-17T08:48:10;12.70;;;12.70;;
71172;SDS011;58875;51.996;4.504;2024-03-17T08:50:36;12.94;;;12.81;;
71172;SDS011;58875;51.996;4.504;2024-03-17T08:53:01;12.89;;;12.86;;
71172;SDS011;58875;51.996;4.504;2024-03-17T08:55:27;12.19;;;12.19;;
71172;SDS011;58875;51.996;4.504;2024-03-17T08:57:53;12.59;;;12.59;;
71172;SDS011;58875;51.996;4.504;2024-03-17T09:00:18;12.62;;;12.59;;
71172;SDS011;58875;51.996;4.504;2024-03-17T09:02:44;12.08;;;12.08;;
71172;SDS011;58875;51.996;4.504;2024-03-17T09:05:13;12.30;;;12.30;;
71172;SDS011;58875;51.996;4.504;2024-03-17T09:07:39;12.45;;;12.45;;
71172;SDS011;58875;51.996;4.504;2024-03-17T09:10:04;12.42;;;12.42;;
71172;SDS011;58875;51.996;4.504;2024-03-17T09:12:31;12.14;;;12.14;;
71172;SDS011;58875;51.996;4.504;2024-03-17T09:14:57;12.28;;;12.28;;
71172;SDS011;58875;51.996;4.504;2024-03-17T09:17:22;12.63;;;12.63;;
71172;SDS011;58875;51.996;4.504;2024-03-17T09:19:51;12.75;;;12.75;;
71172;SDS011;58875;51.996;4.504;2024-03-17T09:22:16;12.43;;;12.43;;
71172;SDS011;58875;51.996;4.504;2024-03-17T09:24:42;11.96;;;11.96;;
71172;SDS011;58875;51.996;4.504;2024-03-17T09:27:08;11.80;;;11.80;;
71172;SDS011;58875;51.996;4.504;2024-03-17T09:29:34;12.35;;;12.35;;
71172;SDS011;58875;51.996;4.504;2024-03-17T09:32:00;11.99;;;11.99;;
71172;SDS011;58875;51.996;4.504;2024-03-17T09:34:25;11.68;;;11.68;;
71172;SDS011;58875;51.996;4.504;2024-03-17T09:36:51;11.74;;;11.74;;
71172;SDS011;58875;51.996;4.504;2024-03-17T09:39:16;11.71;;;11.71;;
71172;SDS011;58875;51.996;4.504;2024-03-17T09:41:44;11.71;;;11.66;;
71172;SDS011;58875;51.996;4.504;2024-03-17T09:44:12;12.12;;;12.11;;
71172;SDS011;58875;51.996;4.504;2024-03-17T09:46:40;11.84;;;11.84;;
71172;SDS011;58875;51.996;4.504;2024-03-17T09:49:14;12.23;;;12.23;;
71172;SDS011;58875;51.996;4.504;2024-03-17T09:51:41;11.42;;;11.42;;
71172;SDS011;58875;51.996;4.504;2024-03-17T09:54:16;11.62;;;11.62;;
71172;SDS011;58875;51.996;4.504;2024-03-17T09:56:43;11.35;;;11.35;;
71172;SDS011;58875;51.996;4.504;2024-03-17T09:59:09;10.39;;;10.39;;
71172;SDS011;58875;51.996;4.504;2024-03-17T10:01:34;11.07;;;11.07;;
71172;SDS011;58875;51.996;4.504;2024-03-17T10:04:00;11.32;;;11.32;;
71172;SDS011;58875;51.996;4.504;2024-03-17T10:06:44;11.99;;;11.99;;
71172;SDS011;58875;51.996;4.504;2024-03-17T10:09:15;11.01;;;11.01;;
71172;SDS011;58875;51.996;4.504;2024-03-17T10:11:46;11.37;;;11.37;;
71172;SDS011;58875;51.996;4.504;2024-03-17T10:14:12;10.92;;;10.91;;
71172;SDS011;58875;51.996;4.504;2024-03-17T10:16:48;11.02;;;11.02;;
71172;SDS011;58875;51.996;4.504;2024-03-17T10:19:25;11.01;;;11.01;;
71172;SDS011;58875;51.996;4.504;2024-03-17T10:21:59;10.60;;;10.57;;
71172;SDS011;58875;51.996;4.504;2024-03-17T10:24:26;10.89;;;10.87;;
71172;SDS011;58875;51.996;4.504;2024-03-17T10:29:30;10.41;;;10.41;;
71172;SDS011;58875;51.996;4.504;2024-03-17T10:32:18;10.08;;;10.08;;
71172;SDS011;58875;51.996;4.504;2024-03-17T10:34:51;10.34;;;10.34;;
71172;SDS011;58875;51.996;4.504;2024-03-17T10:37:20;10.30;;;10.30;;
71172;SDS011;58875;51.996;4.504;2024-03-17T10:39:51;9.95;;;9.94;;
71172;SDS011;58875;51.996;4.504;2024-03-17T10:42:53;10.35;;;10.25;;
71172;SDS011;58875;51.996;4.504;2024-03-17T10:45:26;10.13;;;10.13;;
71172;SDS011;58875;51.996;4.504;2024-03-17T10:47:55;9.51;;;9.51;;
71172;SDS011;58875;51.996;4.504;2024-03-17T10:50:25;9.76;;;9.76;;
71172;SDS011;58875;51.996;4.504;2024-03-17T10:52:55;9.99;;;9.98;;
71172;SDS011;58875;51.996;4.504;2024-03-17T10:55:28;9.60;;;9.60;;
71172;SDS011;58875;51.996;4.504;2024-03-17T11:01:03;10.02;;;10.02;;
71172;SDS011;58875;51.996;4.504;2024-03-17T11:03:32;9.79;;;9.79;;
71172;SDS011;58875;51.996;4.504;2024-03-17T11:06:00;9.86;;;9.86;;
71172;SDS011;58875;51.996;4.504;2024-03-17T11:08:31;9.87;;;9.84;;
71172;SDS011;58875;51.996;4.504;2024-03-17T11:10:58;9.58;;;9.55;;
71172;SDS011;58875;51.996;4.504;2024-03-17T11:13:27;9.85;;;9.72;;
71172;SDS011;58875;51.996;4.504;2024-03-17T11:15:55;9.72;;;9.72;;
71172;SDS011;58875;51.996;4.504;2024-03-17T11:20:56;9.37;;;9.37;;
71172;SDS011;58875;51.996;4.504;2024-03-17T11:23:40;9.43;;;9.43;;
71172;SDS011;58875;51.996;4.504;2024-03-17T11:26:08;9.28;;;9.28;;
71172;SDS011;58875;51.996;4.504;2024-03-17T11:34:01;8.89;;;8.89;;
71172;SDS011;58875;51.996;4.504;2024-03-17T11:39:01;9.68;;;9.56;;
71172;SDS011;58875;51.996;4.504;2024-03-17T11:41:41;9.16;;;9.16;;
71172;SDS011;58875;51.996;4.504;2024-03-17T11:46:51;9.96;;;9.96;;
71172;SDS011;58875;51.996;4.504;2024-03-17T11:51:43;9.94;;;9.90;;
71172;SDS011;58875;51.996;4.504;2024-03-17T11:54:13;9.81;;;9.80;;
71172;SDS011;58875;51.996;4.504;2024-03-17T11:56:50;9.77;;;9.77;;
71172;SDS011;58875;51.996;4.504;2024-03-17T11:59:17;9.37;;;9.37;;
71172;SDS011;58875;51.996;4.504;2024-03-17T12:01:50;9.52;;;9.51;;
71172;SDS011;58875;51.996;4.504;2024-03-17T12:04:17;9.49;;;9.49;;
71172;SDS011;58875;51.996;4.504;2024-03-17T12:06:45;9.11;;;9.11;;
71172;SDS011;58875;51.996;4.504;2024-03-17T12:09:21;9.10;;;9.10;;
71172;SDS011;58875;51.996;4.504;2024-03-17T12:15:01;8.99;;;8.98;;
71172;SDS011;58875;51.996;4.504;2024-03-17T12:17:30;8.45;;;8.44;;
71172;SDS011;58875;51.996;4.504;2024-03-17T12:19:56;8.84;;;8.84;;
71172;SDS011;58875;51.996;4.504;2024-03-17T12:22:22;8.68;;;8.68;;
71172;SDS011;58875;51.996;4.504;2024-03-17T12:24:58;8.38;;;8.38;;
71172;SDS011;58875;51.996;4.504;2024-03-17T12:27:25;8.76;;;8.76;;
71172;SDS011;58875;51.996;4.504;2024-03-17T12:29:52;8.42;;;8.41;;
71172;SDS011;58875;51.996;4.504;2024-03-17T12:32:19;8.54;;;8.52;;
71172;SDS011;58875;51.996;4.504;2024-03-17T12:34:50;8.37;;;8.37;;
71172;SDS011;58875;51.996;4.504;2024-03-17T12:37:21;8.25;;;8.25;;
71172;SDS011;58875;51.996;4.504;2024-03-17T12:39:50;7.94;;;7.94;;
71172;SDS011;58875;51.996;4.504;2024-03-17T12:42:16;8.39;;;8.35;;
71172;SDS011;58875;51.996;4.504;2024-03-17T12:44:56;8.12;;;8.11;;
71172;SDS011;58875;51.996;4.504;2024-03-17T12:47:26;8.15;;;8.15;;
71172;SDS011;58875;51.996;4.504;2024-03-17T12:49:59;7.92;;;7.91;;
71172;SDS011;58875;51.996;4.504;2024-03-17T12:52:31;7.82;;;7.82;;
71172;SDS011;58875;51.996;4.504;2024-03-17T12:57:48;7.69;;;7.69;;
71172;SDS011;58875;51.996;4.504;2024-03-17T13:00:36;7.79;;;7.77;;
71172;SDS011;58875;51.996;4.504;2024-03-17T13:03:05;7.31;;;7.31;;
71172;SDS011;58875;51.996;4.504;2024-03-17T13:05:35;7.33;;;7.33;;
71172;SDS011;58875;51.996;4.504;2024-03-17T13:08:01;7.45;;;7.39;;
71172;SDS011;58875;51.996;4.504;2024-03-17T13:10:28;7.32;;;7.30;;
71172;SDS011;58875;51.996;4.504;2024-03-17T13:12:59;7.58;;;7.58;;
71172;SDS011;58875;51.996;4.504;2024-03-17T13:15:29;7.00;;;7.00;;
71172;SDS011;58875;51.996;4.504;2024-03-17T13:18:00;7.37;;;7.37;;
71172;SDS011;58875;51.996;4.504;2024-03-17T13:20:27;6.95;;;6.95;;
71172;SDS011;58875;51.996;4.504;2024-03-17T13:22:53;7.20;;;7.20;;
71172;SDS011;58875;51.996;4.504;2024-03-17T13:25:22;7.23;;;7.23;;
71172;SDS011;58875;51.996;4.504;2024-03-17T13:27:51;7.03;;;7.03;;
71172;SDS011;58875;51.996;4.504;2024-03-17T13:30:19;7.26;;;7.26;;
71172;SDS011;58875;51.996;4.504;2024-03-17T13:32:50;7.32;;;7.32;;
71172;SDS011;58875;51.996;4.504;2024-03-17T13:35:23;7.55;;;7.55;;
71172;SDS011;58875;51.996;4.504;2024-03-17T13:37:51;7.14;;;7.14;;
71172;SDS011;58875;51.996;4.504;2024-03-17T13:40:22;7.48;;;7.48;;
71172;SDS011;58875;51.996;4.504;2024-03-17T13:42:50;6.76;;;6.76;;
71172;SDS011;58875;51.996;4.504;2024-03-17T13:45:20;6.64;;;6.64;;
71172;SDS011;58875;51.996;4.504;2024-03-17T13:50:23;6.71;;;6.71;;
71172;SDS011;58875;51.996;4.504;2024-03-17T13:52:49;7.34;;;7.34;;
71172;SDS011;58875;51.996;4.504;2024-03-17T13:55:19;7.06;;;7.06;;
71172;SDS011;58875;51.996;4.504;2024-03-17T13:57:47;7.52;;;7.52;;
71172;SDS011;58875;51.996;4.504;2024-03-17T14:00:15;7.64;;;7.64;;
71172;SDS011;58875;51.996;4.504;2024-03-17T14:02:49;7.37;;;7.37;;
71172;SDS011;58875;51.996;4.504;2024-03-17T14:05:17;6.63;;;6.63;;
71172;SDS011;58875;51.996;4.504;2024-03-17T14:07:44;6.57;;;6.57;;
71172;SDS011;58875;51.996;4.504;2024-03-17T14:10:12;6.58;;;6.57;;
71172;SDS011;58875;51.996;4.504;2024-03-17T14:12:39;6.70;;;6.70;;
71172;SDS011;58875;51.996;4.504;2024-03-17T14:15:23;6.60;;;6.60;;
71172;SDS011;58875;51.996;4.504;2024-03-17T14:17:50;6.49;;;6.49;;
71172;SDS011;58875;51.996;4.504;2024-03-17T14:20:15;6.44;;;6.44;;
71172;SDS011;58875;51.996;4.504;2024-03-17T14:22:43;6.41;;;6.41;;
71172;SDS011;58875;51.996;4.504;2024-03-17T14:25:16;6.35;;;6.35;;
71172;SDS011;58875;51.996;4.504;2024-03-17T14:27:46;5.97;;;5.96;;
71172;SDS011;58875;51.996;4.504;2024-03-17T14:30:14;6.45;;;6.45;;
71172;SDS011;58875;51.996;4.504;2024-03-17T14:32:44;6.08;;;6.08;;
71172;SDS011;58875;51.996;4.504;2024-03-17T14:35:15;5.59;;;5.59;;
71172;SDS011;58875;51.996;4.504;2024-03-17T14:37:48;5.97;;;5.97;;
71172;SDS011;58875;51.996;4.504;2024-03-17T14:40:14;6.01;;;6.01;;
71172;SDS011;58875;51.996;4.504;2024-03-17T14:42:49;6.07;;;6.07;;
71172;SDS011;58875;51.996;4.504;2024-03-17T14:45:16;6.05;;;6.05;;
71172;SDS011;58875;51.996;4.504;2024-03-17T14:47:42;6.20;;;6.20;;
71172;SDS011;58875;51.996;4.504;2024-03-17T14:50:09;6.31;;;6.28;;
71172;SDS011;58875;51.996;4.504;2024-03-17T14:52:39;6.25;;;6.25;;
71172;SDS011;58875;51.996;4.504;2024-03-17T14:55:13;6.27;;;6.27;;
71172;SDS011;58875;51.996;4.504;2024-03-17T14:57:39;6.32;;;6.31;;
71172;SDS011;58875;51.996;4.504;2024-03-17T15:00:09;6.33;;;6.33;;
71172;SDS011;58875;51.996;4.504;2024-03-17T15:02:48;6.03;;;6.03;;
71172;SDS011;58875;51.996;4.504;2024-03-17T15:05:17;6.06;;;6.06;;
71172;SDS011;58875;51.996;4.504;2024-03-17T15:07:51;6.39;;;6.39;;
71172;SDS011;58875;51.996;4.504;2024-03-17T15:10:16;6.52;;;6.52;;